createdAt,value
2023-01-04T00:00:00.084Z,7.31
2023-01-04T00:02:28.004Z,7.35
2023-01-04T00:04:54.537Z,7.37
2023-01-04T00:07:21.445Z,7.36
2023-01-04T00:09:48.269Z,7.48
2023-01-04T00:12:15.048Z,7.41
2023-01-04T00:14:41.538Z,7.40
2023-01-04T00:17:08.050Z,7.48
2023-01-04T00:19:34.612Z,7.40
2023-01-04T00:22:01.157Z,7.47
2023-01-04T00:24:27.599Z,7.56
2023-01-04T00:26:54.121Z,7.59
2023-01-04T00:29:20.682Z,7.61
2023-01-04T00:31:47.255Z,7.61
2023-01-04T00:34:15.675Z,7.64
2023-01-04T00:36:42.761Z,7.64
2023-01-04T00:39:12.380Z,7.86
2023-01-04T00:41:59.244Z,7.69
2023-01-04T00:44:27.703Z,7.69
2023-01-04T00:46:54.496Z,7.66
2023-01-04T00:49:21.231Z,7.64
2023-01-04T00:51:47.714Z,7.56
2023-01-04T00:54:15.587Z,7.59
2023-01-04T00:56:43.243Z,7.63
2023-01-04T00:59:12.651Z,7.69
2023-01-04T01:01:40.184Z,7.61
2023-01-04T01:04:11.957Z,7.64
2023-01-04T01:06:38.860Z,7.67
2023-01-04T01:09:05.590Z,7.76
2023-01-04T01:11:32.194Z,7.71
2023-01-04T01:13:58.723Z,7.81
2023-01-04T01:16:53.095Z,7.86
2023-01-04T01:19:14.880Z,7.86
2023-01-04T01:21:41.657Z,7.91
2023-01-04T01:24:14.672Z,7.90
2023-01-04T01:26:41.054Z,7.87
2023-01-04T01:29:07.726Z,7.85
2023-01-04T01:31:34.364Z,7.84
2023-01-04T01:34:02.087Z,7.76
2023-01-04T01:36:28.639Z,7.60
2023-01-04T01:38:55.937Z,7.71
2023-01-04T01:41:28.547Z,7.60
2023-01-04T01:44:01.047Z,7.69
2023-01-04T01:46:31.376Z,7.56
2023-01-04T01:49:05.556Z,7.52
2023-01-04T01:51:34.169Z,7.44
2023-01-04T01:54:09.631Z,7.45
2023-01-04T01:56:39.631Z,7.43
2023-01-04T01:59:09.531Z,7.52
2023-01-04T02:01:36.552Z,7.57
2023-01-04T02:04:05.081Z,7.48
2023-01-04T02:06:35.958Z,7.43
2023-01-04T02:09:03.305Z,7.44
2023-01-04T02:11:29.873Z,7.42
2023-01-04T02:14:22.541Z,7.49
2023-01-04T02:17:17.063Z,7.62
2023-01-04T02:20:04.814Z,7.67
2023-01-04T02:23:05.402Z,7.63
2023-01-04T02:26:10.226Z,7.82
2023-01-04T02:29:14.890Z,7.81
2023-01-04T02:31:50.482Z,7.77
2023-01-04T02:34:19.918Z,7.77
2023-01-04T02:37:08.718Z,7.85
2023-01-04T02:39:40.990Z,7.97
2023-01-04T02:42:55.821Z,8.09
2023-01-04T02:45:29.178Z,8.04
2023-01-04T02:48:28.285Z,8.00
2023-01-04T02:50:57.893Z,7.92
2023-01-04T02:53:28.390Z,7.97
2023-01-04T02:56:14.663Z,8.07
2023-01-04T02:58:59.864Z,8.16
2023-01-04T03:02:10.153Z,8.19
2023-01-04T03:05:13.676Z,8.19
2023-01-04T03:07:51.468Z,8.23
2023-01-04T03:10:25.665Z,8.20
2023-01-04T03:13:09.655Z,8.35
2023-01-04T03:15:40.943Z,8.34
2023-01-04T03:18:15.154Z,8.57
2023-01-04T03:20:43.867Z,8.52
2023-01-04T03:23:32.862Z,8.45
2023-01-04T03:26:26.631Z,8.43
2023-01-04T03:29:14.349Z,8.47
2023-01-04T03:32:05.491Z,8.52
2023-01-04T03:34:50.783Z,8.42
2023-01-04T03:37:20.713Z,8.49
2023-01-04T03:40:18.774Z,8.39
2023-01-04T03:43:26.240Z,8.26
2023-01-04T03:46:20.824Z,8.46
2023-01-04T03:48:57.270Z,8.76
2023-01-04T03:51:30.119Z,8.81
2023-01-04T03:54:04.573Z,8.47
2023-01-04T03:56:33.141Z,8.50
2023-01-04T03:59:00.534Z,8.53
2023-01-04T04:01:28.387Z,8.38
2023-01-04T04:04:14.057Z,8.47
2023-01-04T04:06:59.223Z,8.75
2023-01-04T04:09:25.950Z,8.71
2023-01-04T04:11:52.474Z,8.83
2023-01-04T04:14:19.289Z,9.03
2023-01-04T04:16:45.903Z,9.03
2023-01-04T04:19:12.571Z,8.97
2023-01-04T04:21:39.076Z,8.99
2023-01-04T04:24:06.050Z,9.31
2023-01-04T04:26:32.962Z,9.18
2023-01-04T04:28:59.437Z,9.03
2023-01-04T04:31:26.062Z,9.01
2023-01-04T04:33:52.969Z,9.29
2023-01-04T04:36:19.451Z,9.37
2023-01-04T04:38:45.962Z,9.22
2023-01-04T04:41:32.578Z,9.21
2023-01-04T04:43:59.379Z,9.32
2023-01-04T04:46:26.242Z,9.24
2023-01-04T04:48:52.985Z,9.27
2023-01-04T04:51:19.834Z,9.20
2023-01-04T04:53:46.541Z,9.17
2023-01-04T04:56:13.239Z,9.19
2023-01-04T04:58:40.217Z,9.15
2023-01-04T05:01:07.485Z,9.30
2023-01-04T05:03:34.706Z,9.29
2023-01-04T05:06:01.147Z,9.15
2023-01-04T05:08:28.227Z,9.26
2023-01-04T05:10:54.578Z,9.35
2023-01-04T05:13:21.365Z,9.40
2023-01-04T05:15:50.359Z,9.38
2023-01-04T05:18:19.843Z,9.29
2023-01-04T05:20:46.803Z,9.39
2023-01-04T05:23:14.825Z,9.38
2023-01-04T05:25:41.825Z,9.33
2023-01-04T05:28:09.085Z,9.25
2023-01-04T05:30:50.933Z,9.37
2023-01-04T05:33:19.122Z,9.44
2023-01-04T05:35:45.756Z,9.45
2023-01-04T05:38:12.539Z,9.44
2023-01-04T05:40:40.230Z,9.50
2023-01-04T05:43:07.162Z,9.35
2023-01-04T05:45:34.093Z,9.49
2023-01-04T05:48:00.740Z,9.42
2023-01-04T05:50:27.573Z,9.38
2023-01-04T05:52:54.183Z,9.41
2023-01-04T05:55:20.760Z,9.32
2023-01-04T05:57:47.544Z,9.36
2023-01-04T06:00:14.890Z,9.35
2023-01-04T06:02:42.526Z,9.32
2023-01-04T06:05:10.575Z,9.37
2023-01-04T06:07:38.469Z,9.37
2023-01-04T06:10:10.254Z,9.28
2023-01-04T06:12:37.178Z,9.24
2023-01-04T06:15:05.922Z,9.36
2023-01-04T06:17:33.917Z,9.35
2023-01-04T06:20:00.726Z,9.30
2023-01-04T06:22:28.621Z,9.29
2023-01-04T06:24:55.188Z,9.33
2023-01-04T06:27:22.798Z,9.26
2023-01-04T06:29:50.796Z,9.10
2023-01-04T06:32:17.373Z,9.20
2023-01-04T06:34:44.783Z,9.09
2023-01-04T06:37:11.924Z,9.21
2023-01-04T06:39:38.408Z,9.17
2023-01-04T06:42:06.847Z,9.30
2023-01-04T06:44:34.263Z,9.34
2023-01-04T06:47:00.705Z,9.36
2023-01-04T06:49:27.234Z,9.56
2023-01-04T06:51:53.889Z,9.64
2023-01-04T06:54:20.386Z,9.55
2023-01-04T06:56:47.090Z,9.60
2023-01-04T06:59:13.861Z,9.69
2023-01-04T07:01:40.475Z,9.59
2023-01-04T07:04:07.160Z,9.60
2023-01-04T07:06:33.681Z,9.60
2023-01-04T07:09:00.317Z,9.63
2023-01-04T07:11:26.922Z,9.51
2023-01-04T07:13:53.659Z,9.47
2023-01-04T07:16:20.571Z,9.52
2023-01-04T07:18:47.100Z,9.43
2023-01-04T07:21:13.614Z,9.58
2023-01-04T07:23:40.197Z,9.45
2023-01-04T07:26:07.188Z,9.41
2023-01-04T07:28:52.499Z,9.56
2023-01-04T07:31:18.931Z,9.59
2023-01-04T07:33:48.495Z,9.57
2023-01-04T07:36:15.003Z,9.65
2023-01-04T07:38:43.475Z,9.62
2023-01-04T07:41:09.903Z,9.58
2023-01-04T07:43:36.311Z,9.69
2023-01-04T07:46:02.818Z,9.73
2023-01-04T07:48:29.808Z,9.85
2023-01-04T07:50:56.460Z,9.93
2023-01-04T07:53:22.932Z,9.72
2023-01-04T07:55:55.490Z,9.88
2023-01-04T07:58:22.748Z,9.87
2023-01-04T08:00:49.422Z,9.80
2023-01-04T08:03:16.156Z,10.04
2023-01-04T08:05:43.068Z,9.82
2023-01-04T08:08:09.555Z,9.95
2023-01-04T08:10:36.341Z,9.83
2023-01-04T08:13:03.198Z,9.92
2023-01-04T08:15:29.908Z,10.00
2023-01-04T08:17:56.988Z,10.03
2023-01-04T08:20:23.732Z,9.99
2023-01-04T08:22:50.348Z,10.05
2023-01-04T08:25:17.123Z,10.02
2023-01-04T08:27:43.668Z,10.05
2023-01-04T08:30:10.536Z,10.05
2023-01-04T08:32:38.835Z,10.09
2023-01-04T08:35:05.930Z,9.95
2023-01-04T08:37:33.808Z,9.96
2023-01-04T08:40:00.692Z,10.11
2023-01-04T08:42:31.510Z,10.23
2023-01-04T08:45:00.762Z,10.12
2023-01-04T08:47:29.129Z,10.07
2023-01-04T08:49:56.087Z,10.24
2023-01-04T08:52:22.797Z,10.22
2023-01-04T08:54:49.577Z,10.16
2023-01-04T08:57:19.467Z,10.15
2023-01-04T08:59:45.825Z,10.29
2023-01-04T09:02:24.713Z,10.31
2023-01-04T09:04:51.912Z,10.32
2023-01-04T09:07:18.675Z,10.33
2023-01-04T09:09:45.268Z,10.33
2023-01-04T09:12:12.084Z,10.46
2023-01-04T09:14:39.192Z,10.40
2023-01-04T09:17:05.838Z,10.47
2023-01-04T09:19:32.565Z,10.59
2023-01-04T09:21:59.239Z,10.58
2023-01-04T09:24:25.848Z,10.64
2023-01-04T09:26:53.069Z,10.72
2023-01-04T09:29:19.765Z,10.87
2023-01-04T09:31:46.957Z,10.93
2023-01-04T09:34:16.129Z,10.95
2023-01-04T09:36:48.354Z,10.90
2023-01-04T09:39:22.644Z,11.04
2023-01-04T09:41:58.634Z,11.16
2023-01-04T09:47:41.342Z,11.07
2023-01-04T09:50:18.934Z,11.15
2023-01-04T09:52:51.873Z,11.21
2023-01-04T09:55:38.693Z,11.23
2023-01-04T09:58:23.393Z,11.27
2023-01-04T10:01:11.118Z,11.42
2023-01-04T10:03:46.027Z,11.44
2023-01-04T10:06:13.035Z,11.39
2023-01-04T10:08:41.799Z,11.54
2023-01-04T10:11:22.736Z,11.52
2023-01-04T10:14:03.564Z,11.45
2023-01-04T10:23:02.111Z,11.42
2023-01-04T10:25:53.085Z,11.50
2023-01-04T10:28:19.585Z,11.36
2023-01-04T10:31:38.602Z,11.36
2023-01-04T10:34:30.128Z,11.54
2023-01-04T10:37:20.312Z,11.64
2023-01-04T10:39:51.354Z,11.65
2023-01-04T10:42:51.009Z,11.66
2023-01-04T10:45:35.895Z,11.71
2023-01-04T10:48:24.243Z,11.91
2023-01-04T10:51:05.171Z,11.77
2023-01-04T10:53:55.139Z,11.69
2023-01-04T10:56:47.906Z,11.74
2023-01-04T10:59:30.911Z,11.77
2023-01-04T11:02:11.042Z,11.76
2023-01-04T11:04:42.815Z,11.78
2023-01-04T11:07:38.679Z,11.78
2023-01-04T11:10:09.455Z,11.74
2023-01-04T11:12:36.373Z,11.70
2023-01-04T11:15:04.042Z,11.81
2023-01-04T11:17:32.254Z,11.81
2023-01-04T11:19:59.206Z,11.81
2023-01-04T11:22:35.984Z,11.79
2023-01-04T11:25:37.590Z,11.81
2023-01-04T11:27:57.487Z,12.02
2023-01-04T11:30:28.643Z,11.98
2023-01-04T11:33:00.592Z,11.83
2023-01-04T11:35:48.739Z,11.67
2023-01-04T11:38:17.966Z,11.62
2023-01-04T11:40:57.018Z,11.37
2023-01-04T11:43:25.130Z,11.30
2023-01-04T11:45:59.361Z,11.33
2023-01-04T11:48:35.930Z,11.33
2023-01-04T11:51:03.396Z,11.34
2023-01-04T11:53:36.188Z,11.46
2023-01-04T11:56:16.973Z,11.40
2023-01-04T11:59:02.159Z,11.50
2023-01-04T12:01:29.357Z,11.58
2023-01-04T12:03:56.324Z,11.63
2023-01-04T12:10:24.557Z,11.54
2023-01-04T12:12:51.229Z,11.80
2023-01-04T12:15:26.188Z,11.87
2023-01-04T12:18:02.957Z,11.74
2023-01-04T12:20:30.106Z,11.71
2023-01-04T12:22:56.655Z,11.62
2023-01-04T12:25:25.928Z,11.81
2023-01-04T12:27:55.373Z,11.83
2023-01-04T12:30:36.337Z,11.85
2023-01-04T12:33:34.444Z,11.71
2023-01-04T12:36:02.688Z,11.82
2023-01-04T12:38:54.267Z,11.87
2023-01-04T12:41:23.084Z,11.85
2023-01-04T12:43:50.052Z,11.98
2023-01-04T12:47:09.654Z,11.82
2023-01-04T12:49:39.259Z,11.93
2023-01-04T12:55:03.708Z,11.94
2023-01-04T12:57:37.592Z,11.85
2023-01-04T13:00:04.910Z,11.82
2023-01-04T13:02:45.431Z,11.83
2023-01-04T13:08:10.854Z,12.07
2023-01-04T13:10:44.914Z,11.99
2023-01-04T13:13:29.143Z,12.03
2023-01-04T13:16:16.993Z,12.14
2023-01-04T13:18:47.731Z,12.15
2023-01-04T13:21:28.478Z,11.96
2023-01-04T13:23:58.926Z,12.22
2023-01-04T13:26:31.711Z,12.20
2023-01-04T13:29:20.375Z,12.07
2023-01-04T13:31:55.584Z,12.20
2023-01-04T13:34:43.231Z,12.04
2023-01-04T13:37:17.185Z,12.12
2023-01-04T13:39:46.271Z,12.13
2023-01-04T13:42:23.172Z,12.12
2023-01-04T13:45:21.096Z,12.04
2023-01-04T13:47:51.542Z,12.04
2023-01-04T13:50:29.080Z,12.03
2023-01-04T13:53:06.126Z,11.99
2023-01-04T13:55:37.190Z,12.04
2023-01-04T13:58:17.726Z,12.04
2023-01-04T14:00:50.335Z,12.22
2023-01-04T14:03:24.979Z,12.22
2023-01-04T14:05:59.883Z,12.21
2023-01-04T14:08:47.981Z,12.11
2023-01-04T14:11:41.394Z,12.07
2023-01-04T14:14:22.949Z,12.13
2023-01-04T14:16:51.163Z,12.03
2023-01-04T14:19:39.580Z,12.02
2023-01-04T14:22:21.370Z,12.05
2023-01-04T14:25:08.958Z,12.08
2023-01-04T14:27:45.145Z,11.95
2023-01-04T14:30:25.758Z,12.13
2023-01-04T14:33:13.872Z,12.12
2023-01-04T14:35:46.460Z,12.01
2023-01-04T14:38:18.567Z,11.90
2023-01-04T14:40:46.309Z,11.99
2023-01-04T14:43:44.235Z,12.00
2023-01-04T14:46:10.696Z,11.89
2023-01-04T14:48:39.506Z,11.88
2023-01-04T14:51:07.033Z,11.88
2023-01-04T14:53:33.592Z,12.00
2023-01-04T14:56:00.187Z,12.06
2023-01-04T14:58:26.858Z,12.04
2023-01-04T15:00:53.375Z,11.89
2023-01-04T15:03:20.751Z,11.99
2023-01-04T15:05:47.503Z,11.91
2023-01-04T15:08:14.017Z,12.10
2023-01-04T15:10:40.641Z,12.02
2023-01-04T15:13:07.653Z,11.95
2023-01-04T15:15:34.438Z,11.89
2023-01-04T15:18:01.426Z,11.89
2023-01-04T15:20:27.984Z,12.03
2023-01-04T15:22:54.499Z,11.99
2023-01-04T15:25:21.076Z,11.88
2023-01-04T15:27:47.875Z,11.84
2023-01-04T15:30:14.824Z,12.04
2023-01-04T15:32:42.349Z,12.01
2023-01-04T15:35:09.308Z,11.94
2023-01-04T15:37:36.045Z,11.90
2023-01-04T15:40:03.937Z,11.89
2023-01-04T15:42:49.736Z,11.92
2023-01-04T15:45:16.602Z,11.90
2023-01-04T15:47:43.041Z,11.99
2023-01-04T15:50:09.703Z,11.88
2023-01-04T15:52:36.498Z,11.81
2023-01-04T15:55:03.223Z,11.99
2023-01-04T15:57:30.126Z,11.93
2023-01-04T15:59:56.802Z,12.03
2023-01-04T16:02:24.544Z,12.00
2023-01-04T16:04:51.329Z,11.95
2023-01-04T16:07:18.678Z,12.03
2023-01-04T16:09:45.143Z,11.93
2023-01-04T16:12:30.486Z,12.00
2023-01-04T16:14:57.022Z,11.95
2023-01-04T16:17:24.433Z,11.91
2023-01-04T16:19:51.085Z,11.94
2023-01-04T16:22:17.668Z,11.88
2023-01-04T16:27:35.428Z,12.07
2023-01-04T16:30:04.221Z,11.99
2023-01-04T16:32:30.845Z,12.04
2023-01-04T16:34:57.386Z,11.97
2023-01-04T16:37:28.113Z,11.91
2023-01-04T16:40:10.280Z,12.06
2023-01-04T16:42:38.493Z,12.04
2023-01-04T16:45:06.543Z,11.98
2023-01-04T16:47:39.704Z,12.01
2023-01-04T16:50:07.097Z,12.00
2023-01-04T16:52:33.624Z,12.02
2023-01-04T16:55:00.174Z,12.07
2023-01-04T16:57:26.929Z,12.06
2023-01-04T16:59:53.784Z,11.96
2023-01-04T17:02:20.358Z,11.98
2023-01-04T17:04:52.829Z,12.02
2023-01-04T17:07:19.496Z,11.97
2023-01-04T17:09:46.477Z,11.95
2023-01-04T17:15:32.163Z,11.80
2023-01-04T17:17:46.629Z,11.90
2023-01-04T17:20:13.265Z,12.02
2023-01-04T17:22:40.501Z,11.97
2023-01-04T17:25:07.641Z,11.86
2023-01-04T17:27:35.465Z,11.98
2023-01-04T17:30:02.924Z,12.20
2023-01-04T17:32:29.747Z,12.06
2023-01-04T17:34:58.177Z,12.07
2023-01-04T17:37:25.430Z,12.16
2023-01-04T17:39:52.226Z,12.10
2023-01-04T17:42:18.792Z,12.37
2023-01-04T17:44:47.890Z,12.36
2023-01-04T17:47:14.299Z,12.21
2023-01-04T17:49:40.936Z,12.04
2023-01-04T17:52:09.011Z,12.34
2023-01-04T17:54:36.304Z,12.18
2023-01-04T17:57:02.891Z,12.37
2023-01-04T17:59:29.381Z,12.67
2023-01-04T18:01:56.126Z,12.47
2023-01-04T18:04:23.011Z,12.59
2023-01-04T18:06:49.754Z,12.36
2023-01-04T18:09:20.196Z,12.32
2023-01-04T18:11:49.025Z,12.28
2023-01-04T18:14:15.486Z,12.27
2023-01-04T18:16:58.051Z,12.16
2023-01-04T18:19:30.120Z,12.19
2023-01-04T18:21:57.684Z,12.46
2023-01-04T18:24:35.885Z,12.26
2023-01-04T18:29:51.331Z,12.38
2023-01-04T18:32:18.063Z,12.60
2023-01-04T18:34:44.837Z,12.56
2023-01-04T18:37:11.666Z,12.51
2023-01-04T18:39:38.471Z,12.61
2023-01-04T18:42:05.147Z,12.59
2023-01-04T18:44:34.087Z,12.61
2023-01-04T18:47:03.260Z,12.67
2023-01-04T18:49:29.863Z,12.60
2023-01-04T18:51:56.400Z,12.68
2023-01-04T18:54:23.102Z,12.52
2023-01-04T18:56:54.548Z,12.32
2023-01-04T18:59:25.409Z,12.44
2023-01-04T19:01:52.078Z,12.24
2023-01-04T19:04:19.048Z,12.20
2023-01-04T19:06:45.834Z,12.36
2023-01-04T19:09:12.364Z,12.35
2023-01-04T19:11:39.242Z,12.25
2023-01-04T19:14:06.045Z,12.39
2023-01-04T19:16:33.413Z,12.36
2023-01-04T19:19:00.695Z,12.34
2023-01-04T19:21:28.247Z,12.42
2023-01-04T19:23:55.675Z,12.18
2023-01-04T19:26:23.110Z,12.44
2023-01-04T19:28:50.531Z,12.42
2023-01-04T19:31:19.178Z,12.52
2023-01-04T19:33:45.999Z,12.50
2023-01-04T19:36:13.736Z,12.62
2023-01-04T19:38:40.892Z,12.54
2023-01-04T19:41:08.195Z,12.55
2023-01-04T19:43:35.276Z,12.44
2023-01-04T19:46:01.933Z,12.55
2023-01-04T19:48:30.593Z,12.50
2023-01-04T19:51:04.426Z,12.57
2023-01-04T19:53:31.240Z,12.52
2023-01-04T19:55:57.802Z,12.48
2023-01-04T19:58:24.499Z,12.53
2023-01-04T20:00:55.120Z,12.56
2023-01-04T20:03:22.512Z,12.56
2023-01-04T20:05:50.083Z,12.68
2023-01-04T20:08:16.704Z,12.64
2023-01-04T20:10:43.816Z,12.63
2023-01-04T20:13:10.570Z,12.70
2023-01-04T20:15:38.877Z,12.69
2023-01-04T20:18:13.439Z,12.62
2023-01-04T20:20:42.395Z,12.64
2023-01-04T20:23:09.791Z,12.73
2023-01-04T20:25:44.625Z,12.58
2023-01-04T20:28:12.098Z,12.65
2023-01-04T20:30:39.214Z,12.54
2023-01-04T20:33:07.073Z,12.50
2023-01-04T20:35:37.102Z,12.49
2023-01-04T20:38:03.644Z,12.52
2023-01-04T20:40:30.127Z,12.65
2023-01-04T20:43:28.967Z,12.56
2023-01-04T20:45:55.523Z,12.75
2023-01-04T20:48:24.550Z,12.79
2023-01-04T20:50:51.481Z,12.61
2023-01-04T20:53:17.842Z,12.62
2023-01-04T20:55:44.643Z,12.66
2023-01-04T20:58:15.654Z,12.57
2023-01-04T21:00:43.503Z,12.70
2023-01-04T21:03:11.204Z,12.81
2023-01-04T21:05:43.644Z,12.85
2023-01-04T21:08:12.438Z,12.90
2023-01-04T21:10:43.364Z,12.82
2023-01-04T21:13:11.970Z,13.02
2023-01-04T21:15:39.686Z,12.90
2023-01-04T21:18:07.297Z,12.92
2023-01-04T21:20:33.859Z,12.89
2023-01-04T21:23:00.640Z,12.80
2023-01-04T21:25:27.118Z,12.70
2023-01-04T21:27:53.867Z,12.67
2023-01-04T21:30:20.883Z,12.66
2023-01-04T21:32:47.478Z,12.68
2023-01-04T21:35:14.023Z,12.72
2023-01-04T21:37:40.513Z,12.71
2023-01-04T21:40:07.415Z,12.68
2023-01-04T21:42:34.498Z,12.63
2023-01-04T21:45:01.166Z,12.66
2023-01-04T21:47:30.937Z,12.53
2023-01-04T21:49:57.652Z,12.44
2023-01-04T21:52:24.114Z,12.43
2023-01-04T21:54:50.994Z,12.38
2023-01-04T21:57:17.668Z,12.35
2023-01-04T21:59:44.252Z,12.46
2023-01-04T22:02:18.752Z,12.48
2023-01-04T22:04:46.212Z,12.40
2023-01-04T22:07:12.729Z,12.21
2023-01-04T22:09:39.460Z,12.22
2023-01-04T22:12:06.457Z,12.26
2023-01-04T22:14:33.763Z,12.29
2023-01-04T22:17:00.901Z,12.13
2023-01-04T22:19:27.639Z,12.27
2023-01-04T22:21:54.166Z,12.42
2023-01-04T22:24:20.727Z,12.23
2023-01-04T22:26:49.129Z,12.29
2023-01-04T22:29:15.980Z,12.27
2023-01-04T22:31:42.563Z,12.32
2023-01-04T22:34:09.116Z,12.29
2023-01-04T22:36:35.676Z,12.31
2023-01-04T22:39:02.389Z,12.37
2023-01-04T22:41:29.257Z,12.31
2023-01-04T22:44:04.330Z,12.36
2023-01-04T22:46:33.098Z,12.38
2023-01-04T22:49:00.551Z,12.39
2023-01-04T22:51:29.261Z,12.46
2023-01-04T22:54:01.335Z,12.52
2023-01-04T22:56:29.291Z,12.55
2023-01-04T22:58:57.981Z,12.55
2023-01-04T23:01:30.003Z,12.62
2023-01-04T23:03:58.734Z,12.47
2023-01-04T23:06:27.346Z,12.51
2023-01-04T23:08:59.171Z,12.49
2023-01-04T23:11:26.851Z,12.37
2023-01-04T23:13:53.689Z,12.27
2023-01-04T23:16:24.829Z,12.27
2023-01-04T23:18:54.461Z,12.21
2023-01-04T23:21:21.084Z,12.14
2023-01-04T23:23:49.467Z,12.20
2023-01-04T23:26:19.029Z,12.12
2023-01-04T23:28:46.355Z,12.18
2023-01-04T23:31:14.784Z,12.16
2023-01-04T23:33:41.888Z,12.06
2023-01-04T23:36:14.237Z,12.06
2023-01-04T23:38:40.985Z,12.00
2023-01-04T23:41:08.286Z,11.92
2023-01-04T23:43:36.722Z,11.90
2023-01-04T23:46:15.440Z,11.79
2023-01-04T23:48:43.013Z,11.66
2023-01-04T23:51:11.377Z,11.62
2023-01-04T23:53:37.867Z,11.39
2023-01-04T23:56:06.021Z,11.29
2023-01-04T23:58:33.463Z,11.25
